createdAt,value
2022-09-06T00:01:26.960Z,5.97
2022-09-06T00:03:55.035Z,5.73
2022-09-06T00:06:23.035Z,6.10
2022-09-06T00:08:51.050Z,6.43
2022-09-06T00:11:19.624Z,5.70
2022-09-06T00:13:48.524Z,6.27
2022-09-06T00:16:19.051Z,5.67
2022-09-06T00:18:48.478Z,5.97
2022-09-06T00:21:19.053Z,6.33
2022-09-06T00:23:47.087Z,6.03
2022-09-06T00:26:15.373Z,6.63
2022-09-06T00:28:43.511Z,6.13
2022-09-06T00:31:12.672Z,6.60
2022-09-06T00:33:41.022Z,6.80
2022-09-06T00:36:11.215Z,7.10
2022-09-06T00:38:39.712Z,7.77
2022-09-06T00:41:10.277Z,7.37
2022-09-06T00:43:38.581Z,6.83
2022-09-06T00:46:07.546Z,7.33
2022-09-06T00:48:36.580Z,7.13
2022-09-06T00:51:08.394Z,7.67
2022-09-06T00:53:37.948Z,7.10
2022-09-06T00:56:06.570Z,8.00
2022-09-06T00:58:34.705Z,7.57
2022-09-06T01:01:02.989Z,7.97
2022-09-06T01:03:31.025Z,7.70
2022-09-06T01:06:05.121Z,7.17
2022-09-06T01:08:44.139Z,7.80
2022-09-06T01:11:28.360Z,7.70
2022-09-06T01:14:01.535Z,7.90
2022-09-06T01:16:37.383Z,9.50
2022-09-06T01:19:27.335Z,8.33
2022-09-06T01:22:00.707Z,8.93
2022-09-06T01:25:01.214Z,8.23
2022-09-06T01:27:45.474Z,8.80
2022-09-06T01:30:14.736Z,8.40
2022-09-06T01:32:47.954Z,8.30
2022-09-06T01:35:22.439Z,9.27
2022-09-06T01:37:50.692Z,8.50
2022-09-06T01:40:18.938Z,8.70
2022-09-06T01:42:50.203Z,8.97
2022-09-06T01:45:20.850Z,8.73
2022-09-06T01:47:58.043Z,9.10
2022-09-06T01:50:52.186Z,8.93
2022-09-06T01:53:32.494Z,8.43
2022-09-06T01:56:05.698Z,8.40
2022-09-06T01:58:52.122Z,8.50
2022-09-06T02:01:23.470Z,9.57
2022-09-06T02:03:56.858Z,9.33
2022-09-06T02:06:28.706Z,8.50
2022-09-06T02:09:02.076Z,9.50
2022-09-06T02:11:35.051Z,9.93
2022-09-06T02:14:08.531Z,9.40
2022-09-06T02:16:39.672Z,9.87
2022-09-06T02:19:34.086Z,8.93
2022-09-06T02:22:04.834Z,9.00
2022-09-06T02:24:34.685Z,10.07
2022-09-06T02:27:02.711Z,9.47
2022-09-06T02:29:32.192Z,9.80
2022-09-06T02:32:03.031Z,9.20
2022-09-06T02:34:31.548Z,9.53
2022-09-06T02:36:59.751Z,10.10
2022-09-06T02:39:27.766Z,9.87
2022-09-06T02:41:56.140Z,10.20
2022-09-06T02:44:24.190Z,10.77
2022-09-06T02:46:56.947Z,11.10
2022-09-06T02:49:25.490Z,11.10
2022-09-06T02:51:53.495Z,9.80
2022-09-06T02:54:21.512Z,11.10
2022-09-06T02:56:52.225Z,10.90
2022-09-06T02:59:20.654Z,10.93
2022-09-06T03:01:48.895Z,10.80
2022-09-06T03:04:18.294Z,10.40
2022-09-06T03:06:46.395Z,11.77
2022-09-06T03:09:14.859Z,11.30
2022-09-06T03:11:42.978Z,11.00
2022-09-06T03:14:11.230Z,11.40
2022-09-06T03:16:39.365Z,10.70
2022-09-06T03:19:07.431Z,11.57
2022-09-06T03:21:36.850Z,11.23
2022-09-06T03:24:05.223Z,11.27
2022-09-06T03:26:33.303Z,10.97
2022-09-06T03:29:01.311Z,12.33
2022-09-06T03:31:29.416Z,10.80
2022-09-06T03:33:57.444Z,11.40
2022-09-06T03:36:25.476Z,11.73
2022-09-06T03:38:55.019Z,12.40
2022-09-06T03:41:23.056Z,12.07
2022-09-06T03:43:51.076Z,12.10
2022-09-06T03:46:19.186Z,12.73
2022-09-06T03:48:47.284Z,13.50
2022-09-06T03:51:15.541Z,12.50
2022-09-06T03:53:43.575Z,14.30
2022-09-06T03:56:13.020Z,13.60
2022-09-06T03:58:41.088Z,14.00
2022-09-06T04:01:11.875Z,13.37
2022-09-06T04:03:41.011Z,13.07
2022-09-06T04:06:09.413Z,13.27
2022-09-06T04:08:38.168Z,13.33
2022-09-06T04:11:06.885Z,15.83
2022-09-06T04:13:37.596Z,14.93
2022-09-06T04:16:06.454Z,14.00
2022-09-06T04:18:34.796Z,13.67
2022-09-06T04:21:02.897Z,13.80
2022-09-06T04:23:31.019Z,14.30
2022-09-06T04:26:00.252Z,15.77
2022-09-06T04:28:28.953Z,15.07
2022-09-06T04:31:03.966Z,14.30
2022-09-06T04:33:33.625Z,14.47
2022-09-06T04:36:02.688Z,15.40
2022-09-06T04:38:33.201Z,14.83
2022-09-06T04:41:01.278Z,15.80
2022-09-06T04:43:29.418Z,14.60
2022-09-06T04:46:04.297Z,16.10
2022-09-06T04:48:32.456Z,15.90
2022-09-06T04:51:00.491Z,17.60
2022-09-06T04:53:28.583Z,18.07
2022-09-06T04:55:58.515Z,16.27
2022-09-06T04:58:26.839Z,17.90
2022-09-06T05:00:54.995Z,17.00
2022-09-06T05:03:24.437Z,18.63
2022-09-06T05:05:52.519Z,17.20
2022-09-06T05:08:20.624Z,16.67
2022-09-06T05:10:52.399Z,17.17
2022-09-06T05:13:20.495Z,18.20
2022-09-06T05:15:48.600Z,17.67
2022-09-06T05:18:16.666Z,19.80
2022-09-06T05:20:52.663Z,18.20
2022-09-06T05:23:20.762Z,16.90
2022-09-06T05:25:49.149Z,19.60
2022-09-06T05:28:17.779Z,17.40
2022-09-06T05:30:45.979Z,20.10
2022-09-06T05:33:15.627Z,17.80
2022-09-06T05:35:43.711Z,18.63
2022-09-06T05:38:13.151Z,17.67
2022-09-06T05:40:41.207Z,17.03
2022-09-06T05:43:09.337Z,18.40
2022-09-06T05:45:37.569Z,17.40
2022-09-06T05:48:05.672Z,17.40
2022-09-06T05:50:33.744Z,18.70
2022-09-06T05:53:02.196Z,17.67
2022-09-06T05:55:31.694Z,18.43
2022-09-06T05:57:59.754Z,18.13
2022-09-06T06:00:27.803Z,16.87
2022-09-06T06:02:55.818Z,18.40
2022-09-06T06:05:23.882Z,17.30
2022-09-06T06:07:52.158Z,18.47
2022-09-06T06:10:20.205Z,17.27
2022-09-06T06:12:50.052Z,16.90
2022-09-06T06:15:18.160Z,19.00
2022-09-06T06:17:46.287Z,18.10
2022-09-06T06:20:14.467Z,18.13
2022-09-06T06:22:42.706Z,17.37
2022-09-06T06:25:12.773Z,18.97
2022-09-06T06:27:41.027Z,18.17
2022-09-06T06:30:17.795Z,18.53
2022-09-06T06:32:46.473Z,17.90
2022-09-06T06:35:14.774Z,17.33
2022-09-06T06:37:42.857Z,16.63
2022-09-06T06:40:11.662Z,16.23
2022-09-06T06:42:39.773Z,17.70
2022-09-06T06:45:11.142Z,16.90
2022-09-06T06:47:39.253Z,16.90
2022-09-06T06:50:08.233Z,15.20
2022-09-06T06:52:36.314Z,16.90
2022-09-06T06:55:05.959Z,16.47
2022-09-06T06:57:34.060Z,14.90
2022-09-06T07:00:03.508Z,15.03
2022-09-06T07:02:33.071Z,14.00
2022-09-06T07:05:01.273Z,15.63
2022-09-06T07:12:50.696Z,14.00
2022-09-06T07:15:18.808Z,14.47
2022-09-06T07:17:48.262Z,14.47
2022-09-06T07:20:16.814Z,14.67
2022-09-06T07:22:44.955Z,13.50
2022-09-06T07:25:20.366Z,13.40
2022-09-06T07:27:50.128Z,12.87
2022-09-06T07:30:19.984Z,15.90
2022-09-06T07:32:49.924Z,12.80
2022-09-06T07:35:20.372Z,11.50
2022-09-06T07:37:55.186Z,13.10
2022-09-06T07:40:23.578Z,11.47
2022-09-06T07:42:51.748Z,11.30
2022-09-06T07:45:20.212Z,10.73
2022-09-06T07:50:47.669Z,10.80
2022-09-06T07:53:23.325Z,11.00
2022-09-06T07:55:59.844Z,9.13
2022-09-06T07:58:28.127Z,9.37
2022-09-06T08:00:56.349Z,9.50
2022-09-06T08:03:25.749Z,10.10
2022-09-06T08:06:09.752Z,8.30
2022-09-06T08:11:28.370Z,8.90
2022-09-06T08:13:57.647Z,8.70
2022-09-06T08:16:27.894Z,8.80
2022-09-06T08:18:58.817Z,9.00
2022-09-06T08:21:28.707Z,8.97
2022-09-06T08:23:58.388Z,7.67
2022-09-06T08:26:27.231Z,7.97
2022-09-06T08:28:57.427Z,8.73
2022-09-06T08:31:25.645Z,8.20
2022-09-06T08:33:54.092Z,7.37
2022-09-06T08:36:23.711Z,8.50
2022-09-06T08:38:51.759Z,7.40
2022-09-06T08:41:25.949Z,6.23
2022-09-06T08:46:52.403Z,7.33
2022-09-06T08:49:20.637Z,6.63
2022-09-06T08:52:12.909Z,6.87
2022-09-06T08:54:42.545Z,7.27
2022-09-06T08:57:22.022Z,6.17
2022-09-06T08:59:51.681Z,6.90
2022-09-06T09:02:22.054Z,5.70
2022-09-06T09:04:52.518Z,6.43
2022-09-06T09:07:31.268Z,7.07
2022-09-06T09:09:59.639Z,7.13
2022-09-06T09:12:29.353Z,6.20
2022-09-06T09:15:03.346Z,6.00
2022-09-06T09:17:32.633Z,6.50
2022-09-06T09:20:00.687Z,6.17
2022-09-06T09:22:30.120Z,6.87
2022-09-06T09:24:59.163Z,6.80
2022-09-06T09:27:28.930Z,6.90
2022-09-06T09:32:50.662Z,6.00
2022-09-06T09:35:31.897Z,7.00
2022-09-06T09:38:11.802Z,6.10
2022-09-06T09:40:42.115Z,5.77
2022-09-06T09:43:14.396Z,5.90
2022-09-06T09:45:42.610Z,6.37
2022-09-06T09:48:22.929Z,6.00
2022-09-06T09:50:51.175Z,5.27
2022-09-06T09:53:22.691Z,5.80
2022-09-06T09:55:56.606Z,5.00
2022-09-06T09:58:32.869Z,5.77
2022-09-06T10:01:18.469Z,5.40
2022-09-06T10:09:34.869Z,5.63
2022-09-06T10:12:03.354Z,5.90
2022-09-06T10:14:32.782Z,5.87
2022-09-06T10:17:01.569Z,5.83
2022-09-06T10:19:40.838Z,6.87
2022-09-06T10:22:20.677Z,6.00
2022-09-06T10:25:09.178Z,5.17
2022-09-06T10:27:55.472Z,5.80
2022-09-06T10:30:30.671Z,5.67
2022-09-06T10:33:01.678Z,4.80
2022-09-06T10:35:32.338Z,5.00
2022-09-06T10:38:16.862Z,4.83
2022-09-06T10:40:53.211Z,4.97
2022-09-06T10:43:21.787Z,5.07
2022-09-06T10:45:59.196Z,5.17
2022-09-06T10:48:30.350Z,5.17
2022-09-06T10:51:01.066Z,5.47
2022-09-06T10:53:44.894Z,5.30
2022-09-06T10:56:17.915Z,4.70
2022-09-06T11:01:43.419Z,4.67
2022-09-06T11:04:20.109Z,4.70
2022-09-06T11:06:52.247Z,4.40
2022-09-06T11:09:25.551Z,4.40
2022-09-06T11:12:03.515Z,4.60
2022-09-06T11:14:31.603Z,4.63
2022-09-06T11:17:03.189Z,4.47
2022-09-06T11:19:34.155Z,4.80
2022-09-06T11:22:27.340Z,4.60
2022-09-06T11:25:23.955Z,4.43
2022-09-06T11:27:58.115Z,4.40
2022-09-06T11:30:26.948Z,4.23
2022-09-06T11:33:07.877Z,4.00
2022-09-06T11:35:36.302Z,4.40
2022-09-06T11:38:06.456Z,4.20
2022-09-06T11:40:38.553Z,4.33
2022-09-06T11:43:13.471Z,4.70
2022-09-06T11:45:44.825Z,4.60
2022-09-06T11:48:37.321Z,4.30
2022-09-06T11:51:07.810Z,4.40
2022-09-06T11:53:37.419Z,4.30
2022-09-06T11:56:15.632Z,4.63
2022-09-06T11:58:52.865Z,4.00
2022-09-06T12:01:40.967Z,4.13
2022-09-06T12:04:11.241Z,3.53
2022-09-06T12:06:41.644Z,4.40
2022-09-06T12:09:30.814Z,3.80
2022-09-06T12:11:59.886Z,4.57
2022-09-06T12:14:34.701Z,4.20
2022-09-06T12:17:27.443Z,4.10
2022-09-06T12:19:59.568Z,4.40
2022-09-06T12:23:04.416Z,4.20
2022-09-06T12:25:56.055Z,4.03
2022-09-06T12:28:39.116Z,4.07
2022-09-06T12:31:32.176Z,4.30
2022-09-06T12:34:00.831Z,4.23
2022-09-06T12:36:31.937Z,3.93
2022-09-06T12:39:02.258Z,4.20
2022-09-06T12:41:32.850Z,3.80
2022-09-06T12:44:02.891Z,4.10
2022-09-06T12:46:32.860Z,3.80
2022-09-06T12:49:03.051Z,4.03
2022-09-06T12:51:31.251Z,3.63
2022-09-06T12:54:01.219Z,3.70
2022-09-06T12:56:30.499Z,3.90
2022-09-06T12:59:14.419Z,4.13
2022-09-06T13:01:49.293Z,4.60
2022-09-06T13:04:27.755Z,3.60
2022-09-06T13:06:56.874Z,3.77
2022-09-06T13:09:27.028Z,4.20
2022-09-06T13:11:58.026Z,3.67
2022-09-06T13:14:27.223Z,4.00
2022-09-06T13:16:57.905Z,3.63
2022-09-06T13:19:42.637Z,3.43
2022-09-06T13:22:11.907Z,3.57
2022-09-06T13:24:49.120Z,3.57
2022-09-06T13:27:34.583Z,3.50
2022-09-06T13:30:05.768Z,3.10
2022-09-06T13:32:35.727Z,3.60
2022-09-06T13:35:04.460Z,3.60
2022-09-06T13:37:33.847Z,3.07
2022-09-06T13:40:05.189Z,3.20
2022-09-06T13:42:34.128Z,3.23
2022-09-06T13:45:17.507Z,3.50
2022-09-06T13:47:46.943Z,3.13
2022-09-06T13:50:15.949Z,3.07
2022-09-06T13:53:09.286Z,3.60
2022-09-06T13:55:37.477Z,3.30
2022-09-06T13:58:06.157Z,3.23
2022-09-06T14:00:34.350Z,3.40
2022-09-06T14:03:03.861Z,3.40
2022-09-06T14:05:32.087Z,3.30
2022-09-06T14:08:00.401Z,3.17
2022-09-06T14:10:28.513Z,3.77
2022-09-06T14:12:56.622Z,3.20
2022-09-06T14:15:25.161Z,3.17
2022-09-06T14:17:53.366Z,3.30
2022-09-06T14:20:22.806Z,3.70
2022-09-06T14:22:50.924Z,3.60
2022-09-06T14:25:18.989Z,3.40
2022-09-06T14:27:48.535Z,3.17
2022-09-06T14:30:16.727Z,3.40
2022-09-06T14:32:44.807Z,3.77
2022-09-06T14:35:13.331Z,3.90
2022-09-06T14:37:43.467Z,3.50
2022-09-06T14:40:12.022Z,3.63
2022-09-06T14:42:41.734Z,3.70
2022-09-06T14:45:10.673Z,3.70
2022-09-06T14:47:39.070Z,3.80
2022-09-06T14:50:08.293Z,3.43
2022-09-06T14:52:36.429Z,3.10
2022-09-06T14:55:06.843Z,3.53
2022-09-06T14:57:35.354Z,3.80
2022-09-06T15:00:08.337Z,4.20
2022-09-06T15:02:36.694Z,3.90
2022-09-06T15:05:05.848Z,3.77
2022-09-06T15:07:33.882Z,3.67
2022-09-06T15:10:03.223Z,4.10
2022-09-06T15:12:32.675Z,3.63
2022-09-06T15:15:00.754Z,4.00
2022-09-06T15:17:28.817Z,3.80
2022-09-06T15:19:56.916Z,4.43
2022-09-06T15:22:24.996Z,3.63
2022-09-06T15:24:53.191Z,3.60
2022-09-06T15:27:21.576Z,3.57
2022-09-06T15:29:51.538Z,3.80
2022-09-06T15:32:19.740Z,3.60
2022-09-06T15:34:47.842Z,3.97
2022-09-06T15:37:15.903Z,4.13
2022-09-06T15:39:44.065Z,3.60
2022-09-06T15:42:12.166Z,3.97
2022-09-06T15:44:40.708Z,3.70
2022-09-06T15:47:10.210Z,4.13
2022-09-06T15:49:38.533Z,3.87
2022-09-06T15:52:08.012Z,4.20
2022-09-06T15:54:53.941Z,3.80
2022-09-06T15:57:22.285Z,3.77
2022-09-06T15:59:50.385Z,4.17
2022-09-06T16:02:19.986Z,3.90
2022-09-06T16:04:48.120Z,3.50
2022-09-06T16:07:16.281Z,4.03
2022-09-06T16:09:45.379Z,4.40
2022-09-06T16:12:13.424Z,4.10
2022-09-06T16:14:41.573Z,4.30
2022-09-06T16:17:09.685Z,4.30
2022-09-06T16:19:39.860Z,4.20
2022-09-06T16:22:08.009Z,3.97
2022-09-06T16:24:36.214Z,4.23
2022-09-06T16:27:04.456Z,5.37
2022-09-06T16:29:32.581Z,4.50
2022-09-06T16:32:00.758Z,5.07
2022-09-06T16:34:28.868Z,4.60
2022-09-06T16:36:58.460Z,4.60
2022-09-06T16:39:27.077Z,4.53
2022-09-06T16:41:55.206Z,3.60
2022-09-06T16:44:23.270Z,4.13
2022-09-06T16:46:53.002Z,5.80
2022-09-06T16:49:21.376Z,5.60
2022-09-06T16:51:51.120Z,4.90
2022-09-06T16:54:20.762Z,4.50
2022-09-06T16:56:49.071Z,3.87
2022-09-06T16:59:17.391Z,4.80
2022-09-06T17:01:46.230Z,3.90
2022-09-06T17:04:14.618Z,4.73
2022-09-06T17:06:45.881Z,4.27
2022-09-06T17:09:15.513Z,4.50
2022-09-06T17:11:45.048Z,4.80
2022-09-06T17:14:13.214Z,4.80
2022-09-06T17:16:58.808Z,5.70
2022-09-06T17:19:27.611Z,5.97
2022-09-06T17:21:55.749Z,5.00
2022-09-06T17:24:23.900Z,4.80
2022-09-06T17:26:53.622Z,4.53
2022-09-06T17:29:21.842Z,5.17
2022-09-06T17:31:53.993Z,5.27
2022-09-06T17:34:22.372Z,4.80
2022-09-06T17:36:50.478Z,4.27
2022-09-06T17:39:21.948Z,4.57
2022-09-06T17:41:51.068Z,4.77
2022-09-06T17:44:22.038Z,5.03
2022-09-06T17:47:11.960Z,6.50
2022-09-06T17:49:39.369Z,4.87
2022-09-06T17:52:07.525Z,6.03
2022-09-06T17:54:35.653Z,6.23
2022-09-06T17:57:03.801Z,6.67
2022-09-06T17:59:35.762Z,6.30
2022-09-06T18:02:05.043Z,6.00
2022-09-06T18:04:33.242Z,5.10
2022-09-06T18:07:01.683Z,5.00
2022-09-06T18:09:29.950Z,5.47
2022-09-06T18:11:58.594Z,5.20
2022-09-06T18:14:28.657Z,5.30
2022-09-06T18:16:58.276Z,5.30
2022-09-06T18:19:27.508Z,5.17
2022-09-06T18:21:57.219Z,5.30
2022-09-06T18:24:25.593Z,5.33
2022-09-06T18:26:53.877Z,5.50
2022-09-06T18:29:22.084Z,5.17
2022-09-06T18:31:53.559Z,5.00
2022-09-06T18:34:23.205Z,5.60
2022-09-06T18:36:51.472Z,5.23
2022-09-06T18:39:20.424Z,5.10
2022-09-06T18:42:00.824Z,4.80
2022-09-06T18:44:32.418Z,5.57
2022-09-06T18:47:02.206Z,5.20
2022-09-06T18:49:32.529Z,4.70
2022-09-06T18:52:01.294Z,5.47
2022-09-06T18:54:29.610Z,4.80
2022-09-06T18:56:57.815Z,5.27
2022-09-06T18:59:25.978Z,4.80
2022-09-06T19:01:54.156Z,4.80
2022-09-06T19:04:22.500Z,5.50
2022-09-06T19:06:52.025Z,4.27
2022-09-06T19:09:20.458Z,5.13
2022-09-06T19:11:51.618Z,5.00
2022-09-06T19:14:20.357Z,4.97
2022-09-06T19:16:50.213Z,4.50
2022-09-06T19:19:18.494Z,4.93
2022-09-06T19:21:46.598Z,4.80
2022-09-06T19:24:16.306Z,4.80
2022-09-06T19:26:45.207Z,5.10
2022-09-06T19:29:15.598Z,4.87
2022-09-06T19:31:45.341Z,5.00
2022-09-06T19:34:15.493Z,4.90
2022-09-06T19:36:44.538Z,4.93
2022-09-06T19:39:15.121Z,4.53
2022-09-06T19:41:46.769Z,4.90
2022-09-06T19:44:15.802Z,4.60
2022-09-06T19:46:46.115Z,6.93
2022-09-06T19:49:15.032Z,6.10
2022-09-06T19:51:44.302Z,6.87
2022-09-06T19:54:12.608Z,5.70
2022-09-06T19:56:40.665Z,6.13
2022-09-06T19:59:12.185Z,5.17
2022-09-06T20:01:41.786Z,6.00
2022-09-06T20:04:11.953Z,8.80
2022-09-06T20:06:40.382Z,6.03
2022-09-06T20:09:10.509Z,5.07
2022-09-06T20:11:40.345Z,5.50
2022-09-06T20:14:10.310Z,5.50
2022-09-06T20:16:41.923Z,5.13
2022-09-06T20:19:12.355Z,4.93
2022-09-06T20:21:40.536Z,4.60
2022-09-06T20:24:08.945Z,5.27
2022-09-06T20:26:37.786Z,4.60
2022-09-06T20:29:06.799Z,5.07
2022-09-06T20:31:38.079Z,4.20
2022-09-06T20:34:07.392Z,4.43
2022-09-06T20:36:35.539Z,4.10
2022-09-06T20:39:03.777Z,3.93
2022-09-06T20:41:32.213Z,4.47
2022-09-06T20:44:00.937Z,4.30
2022-09-06T20:46:31.025Z,4.13
2022-09-06T20:49:04.236Z,4.07
2022-09-06T20:51:32.964Z,3.90
2022-09-06T20:54:01.806Z,3.93
2022-09-06T20:56:31.678Z,3.80
2022-09-06T20:59:02.514Z,4.63
2022-09-06T21:01:33.524Z,4.07
2022-09-06T21:04:04.694Z,4.37
2022-09-06T21:06:35.619Z,4.30
2022-09-06T21:09:04.633Z,4.43
2022-09-06T21:11:33.024Z,4.70
2022-09-06T21:14:25.834Z,5.30
2022-09-06T21:16:53.882Z,4.60
2022-09-06T21:19:23.352Z,5.03
2022-09-06T21:21:51.427Z,4.63
2022-09-06T21:24:19.481Z,4.50
2022-09-06T21:26:47.559Z,5.20
2022-09-06T21:29:15.619Z,6.10
2022-09-06T21:31:43.708Z,4.97
2022-09-06T21:34:17.001Z,5.20
2022-09-06T21:36:46.776Z,5.17
2022-09-06T21:39:15.270Z,4.77
2022-09-06T21:41:44.250Z,4.73
2022-09-06T21:44:13.180Z,4.63
2022-09-06T21:46:41.840Z,4.50
2022-09-06T21:49:11.885Z,4.30
2022-09-06T21:51:40.663Z,4.67
2022-09-06T21:54:10.255Z,4.10
2022-09-06T21:56:39.676Z,4.60
2022-09-06T21:59:08.467Z,4.90
2022-09-06T22:01:37.711Z,5.00
2022-09-06T22:04:06.497Z,4.83
2022-09-06T22:06:35.710Z,4.60
2022-09-06T22:09:11.341Z,4.90
2022-09-06T22:11:42.258Z,4.87
2022-09-06T22:14:13.033Z,4.97
2022-09-06T22:16:41.844Z,4.20
2022-09-06T22:19:10.265Z,5.57
2022-09-06T22:21:38.746Z,4.50
2022-09-06T22:24:08.561Z,5.20
2022-09-06T22:26:37.985Z,5.90
2022-09-06T22:29:09.081Z,4.50
2022-09-06T22:31:37.659Z,5.60
2022-09-06T22:34:06.272Z,5.10
2022-09-06T22:36:34.564Z,5.23
2022-09-06T22:39:02.596Z,4.73
2022-09-06T22:41:32.848Z,5.43
2022-09-06T22:44:01.078Z,4.40
2022-09-06T22:46:30.614Z,4.50
2022-09-06T22:48:58.867Z,5.00
2022-09-06T22:51:27.185Z,5.00
2022-09-06T22:53:55.266Z,4.63
2022-09-06T22:56:23.364Z,5.13
2022-09-06T22:58:51.459Z,4.80
2022-09-06T23:01:19.598Z,4.90
2022-09-06T23:03:49.922Z,4.53
2022-09-06T23:06:18.081Z,4.50
2022-09-06T23:08:46.149Z,5.40
2022-09-06T23:11:18.841Z,4.60
2022-09-06T23:13:47.331Z,4.73
2022-09-06T23:16:17.139Z,4.70
2022-09-06T23:18:45.733Z,4.30
2022-09-06T23:21:16.962Z,4.90
2022-09-06T23:23:45.334Z,4.73
2022-09-06T23:26:14.979Z,4.73
2022-09-06T23:28:43.633Z,4.67
2022-09-06T23:31:12.947Z,4.40
2022-09-06T23:33:41.947Z,4.53
2022-09-06T23:36:11.560Z,4.50
2022-09-06T23:38:42.676Z,4.03
2022-09-06T23:41:11.084Z,4.33
2022-09-06T23:43:39.501Z,4.20
2022-09-06T23:46:08.124Z,4.20
2022-09-06T23:48:36.754Z,4.00
2022-09-06T23:51:05.170Z,5.43
2022-09-06T23:53:33.889Z,4.20
2022-09-06T23:56:03.813Z,3.87
2022-09-06T23:58:32.236Z,4.03
